Time;durP1;ratioP1;P1;durP2;ratioP2;P2;SDS_P1;SDS_P2;PMS_P1;PMS_P2;Temp;Humidity;BMP_temperature;BMP_pressure;BME280_temperature;BME280_humidity;BME280_pressure;Samples;Min_cycle;Max_cycle;Signal;HPM_P1;HPM_P2
2021/08/21 00:01:19;;;;;;;4.90;3.20;;;23.60;56.30;;;;;;5113406;28;20130;-70
2021/08/21 00:03:45;;;;;;;4.88;3.15;;;23.60;56.20;;;;;;5113184;28;20055;-73
2021/08/21 00:06:11;;;;;;;5.97;3.50;;;23.60;55.80;;;;;;5113311;28;20500;-69
2021/08/21 00:08:37;;;;;;;8.05;3.35;;;23.70;55.90;;;;;;5113389;28;20132;-72
2021/08/21 00:11:03;;;;;;;6.05;3.05;;;23.60;55.20;;;;;;5113810;28;20384;-72
2021/08/21 00:13:29;;;;;;;5.80;3.30;;;23.60;55.50;;;;;;5114051;28;20032;-73
2021/08/21 00:15:54;;;;;;;5.38;3.03;;;23.60;56.20;;;;;;5113865;28;20031;-71
2021/08/21 00:18:20;;;;;;;6.30;3.22;;;23.50;57.50;;;;;;5113918;28;20039;-71
2021/08/21 00:20:46;;;;;;;4.63;2.97;;;23.50;56.60;;;;;;5113895;28;20093;-72
2021/08/21 00:23:12;;;;;;;5.30;3.05;;;23.40;57.40;;;;;;5113960;28;20063;-72
2021/08/21 00:25:37;;;;;;;7.85;3.70;;;23.50;56.80;;;;;;5114106;28;20063;-72
2021/08/21 00:28:03;;;;;;;6.68;3.22;;;23.50;56.70;;;;;;5113823;28;20031;-72
2021/08/21 00:30:29;;;;;;;5.13;3.33;;;23.50;56.10;;;;;;5113801;28;20031;-72
2021/08/21 00:32:54;;;;;;;4.43;3.20;;;23.50;56.30;;;;;;5113763;28;20028;-72
2021/08/21 00:35:20;;;;;;;9.40;3.17;;;23.40;57.00;;;;;;5113463;28;20043;-69
2021/08/21 00:37:46;;;;;;;4.13;3.15;;;23.40;56.80;;;;;;5113650;28;20039;-72
2021/08/21 00:40:12;;;;;;;6.97;3.38;;;23.40;56.10;;;;;;5113255;28;20409;-71
2021/08/21 00:42:38;;;;;;;4.10;3.67;;;23.40;55.90;;;;;;5113059;28;20372;-71
2021/08/21 00:45:05;;;;;;;8.82;3.38;;;23.40;56.80;;;;;;5113173;28;20056;-69
2021/08/21 00:47:31;;;;;;;6.07;3.75;;;23.30;56.40;;;;;;5113547;28;20036;-72
2021/08/21 00:49:57;;;;;;;8.10;3.50;;;23.30;56.00;;;;;;5113135;28;20165;-70
2021/08/21 00:52:24;;;;;;;6.25;3.40;;;23.30;56.10;;;;;;5112697;28;20549;-71
2021/08/21 00:54:51;;;;;;;6.93;3.63;;;23.30;56.00;;;;;;5113520;28;20040;-70
2021/08/21 00:57:17;;;;;;;6.13;3.67;;;23.20;58.00;;;;;;5112888;28;20028;-71
2021/08/21 00:59:45;;;;;;;4.47;3.42;;;23.20;57.40;;;;;;5111868;28;20063;-72
2021/08/21 01:02:12;;;;;;;5.55;3.55;;;23.10;57.40;;;;;;5113067;28;20105;-71
2021/08/21 01:04:39;;;;;;;5.75;3.13;;;23.20;57.30;;;;;;5112806;28;20107;-71
2021/08/21 01:07:10;;;;;;;6.05;3.20;;;23.20;59.00;;;;;;5093656;28;20032;-68
2021/08/21 01:09:37;;;;;;;10.85;3.90;;;23.20;58.00;;;;;;5112699;28;20057;-72
2021/08/21 01:12:10;;;;;;;11.45;3.30;;;23.10;59.20;;;;;;5112193;28;20032;-70
2021/08/21 01:14:35;;;;;;;4.57;3.05;;;23.10;56.90;;;;;;5112256;28;20032;-69
2021/08/21 01:17:02;;;;;;;9.43;3.53;;;23.10;56.70;;;;;;5112936;28;20540;-70
2021/08/21 01:19:30;;;;;;;4.70;3.20;;;23.10;56.60;;;;;;5113239;28;20110;-70
2021/08/21 01:21:56;;;;;;;4.38;3.10;;;23.00;58.60;;;;;;5112730;28;20422;-71
2021/08/21 01:24:21;;;;;;;5.32;3.53;;;23.00;57.50;;;;;;5112393;28;20032;-68
2021/08/21 01:26:57;;;;;;;5.40;3.10;;;22.90;58.30;;;;;;5112956;28;20036;-71
2021/08/21 01:29:23;;;;;;;4.22;3.10;;;22.90;57.30;;;;;;5113840;28;20400;-71
2021/08/21 01:31:50;;;;;;;8.20;3.30;;;22.90;58.00;;;;;;5117269;28;20523;-68
2021/08/21 01:34:17;;;;;;;9.25;3.78;;;22.90;57.50;;;;;;5116713;28;20050;-72
2021/08/21 01:36:45;;;;;;;5.22;3.13;;;22.80;59.00;;;;;;5116864;28;20031;-70
2021/08/21 01:39:12;;;;;;;4.82;3.38;;;22.80;58.30;;;;;;5117034;28;20043;-71
2021/08/21 01:41:40;;;;;;;5.70;3.58;;;22.90;57.40;;;;;;5116834;28;20476;-69
2021/08/21 01:44:15;;;;;;;5.22;2.75;;;22.90;58.10;;;;;;5116498;28;20043;-71
2021/08/21 01:46:41;;;;;;;5.43;3.17;;;22.70;59.80;;;;;;5116727;28;20059;-72
2021/08/21 01:49:09;;;;;;;7.55;3.33;;;22.70;59.50;;;;;;5116505;28;20059;-69
2021/08/21 01:51:36;;;;;;;8.55;3.08;;;22.60;58.80;;;;;;5102645;28;20102;-71
2021/08/21 01:54:03;;;;;;;6.70;3.78;;;22.60;58.80;;;;;;5096235;28;20036;-72
2021/08/21 01:56:28;;;;;;;5.13;3.10;;;22.70;57.70;;;;;;5095096;28;20036;-72
2021/08/21 01:58:54;;;;;;;5.13;3.05;;;22.60;60.10;;;;;;5095927;28;20069;-73
2021/08/21 02:01:20;;;;;;;8.30;3.75;;;22.50;60.30;;;;;;5095952;28;20098;-72
2021/08/21 02:03:46;;;;;;;6.47;3.25;;;22.50;60.10;;;;;;5096011;28;20034;-73
2021/08/21 02:06:15;;;;;;;8.40;3.33;;;22.40;60.30;;;;;;5095726;28;20040;-71
2021/08/21 02:08:41;;;;;;;5.20;3.38;;;22.40;60.00;;;;;;5096495;28;20054;-72
2021/08/21 02:11:07;;;;;;;6.82;3.28;;;22.30;60.50;;;;;;5096149;28;20062;-71
2021/08/21 02:13:34;;;;;;;7.45;3.38;;;22.30;59.20;;;;;;5095395;28;20104;-72
2021/08/21 02:16:00;;;;;;;6.07;3.63;;;22.30;59.20;;;;;;5095420;28;20534;-73
2021/08/21 02:18:26;;;;;;;6.50;3.30;;;22.30;60.90;;;;;;5095467;28;20055;-72
2021/08/21 02:20:52;;;;;;;6.43;3.75;;;22.30;60.10;;;;;;5095783;28;20048;-72
2021/08/21 02:23:18;;;;;;;5.22;3.20;;;22.20;60.00;;;;;;5094974;28;20415;-72
2021/08/21 02:25:44;;;;;;;4.05;2.80;;;22.20;61.20;;;;;;5095139;28;20040;-71
2021/08/21 02:28:17;;;;;;;5.88;2.97;;;22.20;60.10;;;;;;5095822;28;20032;-71
2021/08/21 02:30:43;;;;;;;7.22;3.45;;;22.20;59.70;;;;;;5095186;28;20044;-72
2021/08/21 02:33:08;;;;;;;3.55;3.05;;;22.10;60.40;;;;;;5094013;28;20497;-72
2021/08/21 02:35:34;;;;;;;5.35;3.40;;;22.10;60.40;;;;;;5094037;28;20509;-71
2021/08/21 02:38:02;;;;;;;5.93;3.30;;;22.20;60.50;;;;;;5095198;28;20040;-73
2021/08/21 02:40:27;;;;;;;5.70;2.83;;;22.10;59.90;;;;;;5094033;28;20400;-72
2021/08/21 02:42:53;;;;;;;8.25;3.05;;;22.10;59.80;;;;;;5093287;28;20073;-71
2021/08/21 02:45:19;;;;;;;4.80;3.20;;;22.10;60.40;;;;;;5094248;28;20090;-73
2021/08/21 02:47:45;;;;;;;4.25;3.20;;;22.10;60.60;;;;;;5093954;28;20036;-71
2021/08/21 02:50:10;;;;;;;4.22;2.58;;;22.10;60.60;;;;;;5094789;28;20385;-72
2021/08/21 02:52:36;;;;;;;6.90;3.28;;;22.20;60.60;;;;;;5114845;28;20472;-73
2021/08/21 02:55:03;;;;;;;10.32;3.88;;;22.10;60.40;;;;;;5115224;28;20107;-73
2021/08/21 02:57:28;;;;;;;7.07;3.40;;;22.10;60.10;;;;;;5114944;28;20437;-72
2021/08/21 02:59:54;;;;;;;3.58;2.88;;;22.10;59.80;;;;;;5115532;28;20036;-70
2021/08/21 03:02:20;;;;;;;4.28;3.38;;;22.10;60.00;;;;;;5115377;28;20044;-72
2021/08/21 03:04:45;;;;;;;5.40;3.03;;;22.10;59.80;;;;;;5115353;28;20102;-72
2021/08/21 03:07:11;;;;;;;5.45;3.47;;;22.10;61.10;;;;;;5114708;28;20054;-71
2021/08/21 03:09:37;;;;;;;5.63;3.53;;;22.00;60.70;;;;;;5115253;28;20028;-71
2021/08/21 03:12:03;;;;;;;3.78;2.88;;;21.90;60.30;;;;;;5115860;28;20035;-72
2021/08/21 03:14:28;;;;;;;7.50;3.33;;;21.80;60.70;;;;;;5115748;28;20067;-72
2021/08/21 03:16:54;;;;;;;7.78;3.45;;;21.80;60.60;;;;;;5114684;28;20126;-72
2021/08/21 03:19:19;;;;;;;5.50;3.15;;;21.80;60.90;;;;;;5115148;28;20036;-72
2021/08/21 03:21:45;;;;;;;8.43;3.03;;;21.70;60.90;;;;;;5114749;28;20089;-72
2021/08/21 03:24:11;;;;;;;5.35;2.90;;;21.80;60.50;;;;;;5114449;28;20040;-72
2021/08/21 03:26:36;;;;;;;8.13;3.42;;;21.80;59.90;;;;;;5113815;28;20034;-71
2021/08/21 03:29:03;;;;;;;4.32;3.00;;;21.80;60.60;;;;;;5114524;28;20198;-71
2021/08/21 03:31:29;;;;;;;5.07;2.95;;;21.80;60.20;;;;;;5114640;28;20031;-71
2021/08/21 03:33:56;;;;;;;8.52;3.55;;;21.70;62.30;;;;;;5114292;28;20388;-72
2021/08/21 03:36:21;;;;;;;6.90;3.17;;;21.70;61.20;;;;;;5114516;28;20048;-70
2021/08/21 03:38:47;;;;;;;4.78;3.30;;;21.70;61.50;;;;;;5114185;28;20075;-71
2021/08/21 03:41:13;;;;;;;5.63;3.33;;;21.70;61.30;;;;;;5114085;28;20430;-71
2021/08/21 03:43:39;;;;;;;6.68;3.47;;;21.70;61.90;;;;;;5114599;28;20039;-71
2021/08/21 03:46:04;;;;;;;5.10;3.33;;;21.70;61.40;;;;;;5114161;28;20036;-71
2021/08/21 03:48:30;;;;;;;5.63;2.88;;;21.60;62.00;;;;;;5114251;28;20118;-71
2021/08/21 03:50:56;;;;;;;5.90;3.47;;;21.60;61.50;;;;;;5113981;28;20044;-72
2021/08/21 03:53:21;;;;;;;5.40;2.90;;;21.60;61.40;;;;;;5113802;28;20036;-72
2021/08/21 03:55:48;;;;;;;10.77;3.20;;;21.60;61.90;;;;;;5114411;28;20067;-72
2021/08/21 03:58:15;;;;;;;5.82;3.40;;;21.50;62.60;;;;;;5113943;28;20071;-72
2021/08/21 04:00:40;;;;;;;6.47;3.30;;;21.50;61.80;;;;;;5113118;28;20123;-70
2021/08/21 04:03:08;;;;;;;5.00;3.10;;;21.50;62.50;;;;;;5114012;28;20471;-71
2021/08/21 04:05:34;;;;;;;8.32;3.58;;;21.40;62.70;;;;;;5113624;28;20407;-72
2021/08/21 04:08:00;;;;;;;5.65;3.20;;;21.40;62.80;;;;;;5113692;28;20024;-72
2021/08/21 04:10:26;;;;;;;5.50;3.20;;;21.40;62.50;;;;;;5113114;28;20419;-68
2021/08/21 04:12:52;;;;;;;5.45;3.15;;;21.40;61.20;;;;;;5113052;28;20035;-70
2021/08/21 04:15:17;;;;;;;8.77;3.50;;;21.50;61.10;;;;;;5113448;28;20540;-71
2021/08/21 04:17:43;;;;;;;16.45;4.13;;;21.40;62.60;;;;;;5113551;28;20028;-71
2021/08/21 04:20:10;;;;;;;10.57;3.17;;;21.40;62.90;;;;;;5113389;28;20069;-71
2021/08/21 04:22:36;;;;;;;12.40;3.78;;;21.40;62.10;;;;;;5113818;28;20054;-71
2021/08/21 04:25:02;;;;;;;13.07;3.83;;;21.30;62.90;;;;;;5113203;28;20035;-72
2021/08/21 04:27:27;;;;;;;9.60;3.75;;;21.30;62.80;;;;;;5113552;28;20491;-71
2021/08/21 04:29:53;;;;;;;14.20;3.40;;;21.20;62.90;;;;;;5113858;28;20105;-71
2021/08/21 04:32:19;;;;;;;12.07;3.50;;;21.20;62.40;;;;;;5113782;28;20035;-72
2021/08/21 04:34:44;;;;;;;6.53;3.22;;;21.20;63.40;;;;;;5113164;28;20450;-73
2021/08/21 04:37:10;;;;;;;7.60;3.85;;;21.20;62.40;;;;;;5114007;28;20063;-72
2021/08/21 04:39:36;;;;;;;8.82;3.60;;;21.20;62.40;;;;;;5113538;28;20027;-73
2021/08/21 04:42:01;;;;;;;7.20;3.38;;;21.20;62.80;;;;;;5113620;28;20047;-73
2021/08/21 04:44:27;;;;;;;6.60;3.13;;;21.30;62.80;;;;;;5113326;28;20024;-72
2021/08/21 04:46:53;;;;;;;6.43;3.38;;;21.20;63.00;;;;;;5112524;28;20044;-70
2021/08/21 04:49:22;;;;;;;5.55;3.22;;;21.30;62.50;;;;;;5113334;28;20075;-71
2021/08/21 04:51:48;;;;;;;5.05;3.42;;;21.30;62.10;;;;;;5098023;28;20507;-72
2021/08/21 04:54:13;;;;;;;6.80;3.50;;;21.40;61.70;;;;;;5093253;28;20032;-72
2021/08/21 04:56:39;;;;;;;6.25;3.20;;;21.40;61.90;;;;;;5093327;28;20047;-72
2021/08/21 04:59:05;;;;;;;7.95;3.63;;;21.50;61.30;;;;;;5093378;28;20027;-70
2021/08/21 05:01:30;;;;;;;4.57;3.30;;;21.60;61.00;;;;;;5092351;28;20066;-71
2021/08/21 05:03:56;;;;;;;6.38;3.03;;;21.70;60.70;;;;;;5092379;28;20127;-72
2021/08/21 05:06:21;;;;;;;5.35;3.35;;;21.70;60.70;;;;;;5097053;28;20036;-72
2021/08/21 05:08:47;;;;;;;8.85;3.10;;;21.70;60.30;;;;;;5096265;28;20050;-71
2021/08/21 05:11:13;;;;;;;8.40;3.20;;;21.80;60.00;;;;;;5096049;28;20083;-73
2021/08/21 05:13:38;;;;;;;7.40;3.20;;;21.90;59.70;;;;;;5097049;28;20057;-72
2021/08/21 05:16:04;;;;;;;7.53;3.00;;;21.90;60.20;;;;;;5097320;28;20123;-73
2021/08/21 05:18:36;;;;;;;7.80;3.55;;;22.00;59.30;;;;;;5097244;28;20035;-71
2021/08/21 05:21:06;;;;;;;5.75;3.50;;;22.00;60.00;;;;;;5097101;28;20400;-73
2021/08/21 05:23:34;;;;;;;9.52;4.50;;;22.00;60.10;;;;;;5097073;28;20140;-72
2021/08/21 05:26:00;;;;;;;6.15;3.10;;;22.10;61.00;;;;;;5097277;28;20150;-72
2021/08/21 05:28:26;;;;;;;6.30;3.50;;;22.10;60.10;;;;;;5097251;28;20493;-72
2021/08/21 05:30:51;;;;;;;8.45;3.75;;;22.10;59.30;;;;;;5097392;28;20174;-71
2021/08/21 05:33:18;;;;;;;6.20;3.47;;;22.10;60.20;;;;;;5097216;28;20484;-72
2021/08/21 05:35:44;;;;;;;6.05;3.53;;;22.10;58.90;;;;;;5097003;28;20047;-73
2021/08/21 05:38:10;;;;;;;8.18;3.58;;;22.10;59.10;;;;;;5096877;28;20028;-74
2021/08/21 05:40:37;;;;;;;7.65;3.47;;;22.10;59.00;;;;;;5096720;28;20055;-74
2021/08/21 05:43:03;;;;;;;7.82;3.38;;;22.10;59.40;;;;;;5096573;28;20029;-74
2021/08/21 05:45:29;;;;;;;7.78;3.80;;;22.20;59.90;;;;;;5096470;28;20081;-74
2021/08/21 05:47:56;;;;;;;14.45;5.53;;;22.20;59.20;;;;;;5096510;28;20024;-75
2021/08/21 05:50:22;;;;;;;13.02;5.22;;;22.20;61.20;;;;;;5099378;28;20078;-74
2021/08/21 05:52:49;;;;;;;5.43;3.53;;;22.20;62.90;;;;;;5116868;28;20555;-75
2021/08/21 05:55:15;;;;;;;8.85;3.47;;;22.30;62.40;;;;;;5117095;28;20433;-75
2021/08/21 05:57:40;;;;;;;10.85;3.95;;;22.30;62.50;;;;;;5117139;28;20028;-74
2021/08/21 06:00:08;;;;;;;5.25;3.33;;;22.30;61.10;;;;;;5116669;28;20043;-75
2021/08/21 06:02:33;;;;;;;8.95;3.50;;;22.40;60.20;;;;;;5117042;28;20467;-75
2021/08/21 06:04:59;;;;;;;5.32;3.35;;;22.50;60.00;;;;;;5116868;28;20038;-75
2021/08/21 06:07:25;;;;;;;11.23;4.95;;;22.50;60.00;;;;;;5116814;28;20465;-74
2021/08/21 06:09:51;;;;;;;12.85;6.15;;;22.50;59.90;;;;;;5116708;28;20032;-74
2021/08/21 06:12:17;;;;;;;11.82;5.95;;;22.60;59.90;;;;;;5116840;28;20028;-76
2021/08/21 06:14:44;;;;;;;14.25;6.07;;;22.60;59.50;;;;;;5116666;28;20027;-73
2021/08/21 06:17:10;;;;;;;7.32;4.20;;;22.70;59.10;;;;;;5116422;28;20095;-72
2021/08/21 06:19:36;;;;;;;7.13;4.10;;;22.80;58.30;;;;;;5116490;28;20028;-73
2021/08/21 06:22:03;;;;;;;5.18;3.40;;;22.90;58.30;;;;;;5116640;28;20053;-72
2021/08/21 06:24:28;;;;;;;6.40;3.35;;;22.90;57.90;;;;;;5116384;28;20471;-73
2021/08/21 06:26:54;;;;;;;6.15;3.22;;;23.00;57.70;;;;;;5116252;28;20114;-68
2021/08/21 06:29:20;;;;;;;4.60;3.50;;;23.00;57.70;;;;;;5116420;28;20034;-73
2021/08/21 06:31:45;;;;;;;5.63;3.33;;;23.10;57.60;;;;;;5116423;28;20040;-71
2021/08/21 06:34:11;;;;;;;5.63;3.30;;;23.20;57.20;;;;;;5116152;28;20059;-72
2021/08/21 06:36:37;;;;;;;5.07;3.17;;;23.30;57.20;;;;;;5115925;28;20047;-72
2021/08/21 06:39:02;;;;;;;7.40;3.83;;;23.30;56.90;;;;;;5116051;28;20023;-72
2021/08/21 06:41:28;;;;;;;4.82;3.42;;;23.40;56.60;;;;;;5116094;28;20084;-72
2021/08/21 06:43:54;;;;;;;7.20;3.70;;;23.50;55.80;;;;;;5115932;28;20028;-71
2021/08/21 06:46:19;;;;;;;7.50;3.17;;;23.50;54.80;;;;;;5115878;28;20472;-72
2021/08/21 06:48:45;;;;;;;7.25;3.10;;;23.50;55.00;;;;;;5115748;28;20545;-72
2021/08/21 06:51:11;;;;;;;8.20;3.22;;;23.70;55.50;;;;;;5115770;28;20083;-72
2021/08/21 06:53:36;;;;;;;7.45;3.10;;;23.70;55.10;;;;;;5115997;28;20031;-72
2021/08/21 06:56:04;;;;;;;9.05;3.33;;;23.80;54.90;;;;;;5115997;28;20110;-72
2021/08/21 06:58:30;;;;;;;6.80;3.47;;;23.80;54.50;;;;;;5115943;28;20032;-72
2021/08/21 07:00:56;;;;;;;6.75;3.08;;;23.90;54.50;;;;;;5115285;28;20377;-72
2021/08/21 07:03:22;;;;;;;6.20;3.40;;;24.00;54.20;;;;;;5115846;28;20027;-72
2021/08/21 07:05:48;;;;;;;4.28;2.83;;;24.00;54.10;;;;;;5116020;28;20046;-72
2021/08/21 07:08:13;;;;;;;4.03;3.15;;;24.10;53.90;;;;;;5115546;28;20130;-72
2021/08/21 07:10:39;;;;;;;6.60;2.97;;;24.20;53.70;;;;;;5115972;28;20094;-72
2021/08/21 07:13:06;;;;;;;5.95;3.10;;;24.20;53.40;;;;;;5115432;28;20488;-73
2021/08/21 07:15:32;;;;;;;6.32;3.22;;;24.20;53.30;;;;;;5115702;28;20190;-73
2021/08/21 07:17:58;;;;;;;6.22;3.08;;;24.30;53.20;;;;;;5115613;28;20035;-70
2021/08/21 07:20:24;;;;;;;8.98;3.22;;;24.40;52.90;;;;;;5115317;28;20052;-72
2021/08/21 07:22:50;;;;;;;5.03;2.90;;;24.40;52.80;;;;;;5115364;28;20020;-73
2021/08/21 07:25:15;;;;;;;8.10;3.08;;;24.50;52.50;;;;;;5115317;28;20436;-73
2021/08/21 07:27:41;;;;;;;4.57;3.03;;;24.60;52.00;;;;;;5114613;28;20032;-73
2021/08/21 07:30:08;;;;;;;6.10;3.20;;;24.60;52.00;;;;;;5115211;28;20036;-72
2021/08/21 07:32:34;;;;;;;3.72;3.25;;;24.70;52.30;;;;;;5114951;28;20046;-73
2021/08/21 07:35:00;;;;;;;4.35;3.05;;;24.80;52.10;;;;;;5115182;28;20108;-72
2021/08/21 07:37:26;;;;;;;4.30;3.20;;;24.80;51.90;;;;;;5114939;28;20487;-73
2021/08/21 07:39:52;;;;;;;4.00;3.50;;;24.90;51.90;;;;;;5114763;28;20031;-72
2021/08/21 07:42:18;;;;;;;5.93;3.13;;;24.90;51.80;;;;;;5115085;28;20038;-73
2021/08/21 07:44:43;;;;;;;4.03;3.15;;;25.00;52.30;;;;;;5114970;28;20476;-72
2021/08/21 07:47:09;;;;;;;4.90;3.33;;;25.10;52.10;;;;;;5114925;28;20042;-68
2021/08/21 07:49:35;;;;;;;4.45;3.40;;;25.10;51.40;;;;;;5114945;28;20028;-72
2021/08/21 07:52:00;;;;;;;4.90;3.13;;;25.20;51.10;;;;;;5114537;28;20052;-74
2021/08/21 07:54:26;;;;;;;5.57;3.50;;;25.30;51.00;;;;;;5096333;28;20036;-71
2021/08/21 07:56:52;;;;;;;4.93;3.20;;;25.30;50.90;;;;;;5114754;28;20032;-69
2021/08/21 07:59:17;;;;;;;4.43;3.38;;;25.40;50.90;;;;;;5114623;28;20036;-68
2021/08/21 08:01:43;;;;;;;7.00;3.47;;;25.40;50.80;;;;;;5114372;28;20476;-70
2021/08/21 08:04:09;;;;;;;4.70;3.15;;;25.50;50.20;;;;;;5114685;28;20028;-69
2021/08/21 08:06:34;;;;;;;5.25;3.17;;;25.60;49.40;;;;;;5114394;28;20467;-72
2021/08/21 08:09:00;;;;;;;5.60;3.15;;;25.70;48.90;;;;;;5114545;28;20035;-71
2021/08/21 08:11:25;;;;;;;4.55;3.45;;;25.70;49.80;;;;;;5114341;28;20027;-68
2021/08/21 08:13:51;;;;;;;5.78;3.47;;;25.80;48.30;;;;;;5114147;28;20122;-69
2021/08/21 08:16:17;;;;;;;4.25;3.58;;;25.80;48.40;;;;;;5114374;28;20114;-70
2021/08/21 08:18:42;;;;;;;6.80;3.45;;;26.00;48.40;;;;;;5114394;28;20495;-69
2021/08/21 08:21:11;;;;;;;3.92;3.10;;;26.00;48.70;;;;;;5114429;28;20078;-72
2021/08/21 08:23:37;;;;;;;4.40;3.78;;;26.10;47.30;;;;;;5114140;28;20467;-69
2021/08/21 08:26:02;;;;;;;4.07;3.00;;;26.20;47.10;;;;;;5114223;28;20088;-72
2021/08/21 08:28:28;;;;;;;5.18;3.38;;;26.20;47.30;;;;;;5114289;28;20038;-71
2021/08/21 08:30:54;;;;;;;5.63;3.17;;;26.30;47.20;;;;;;5114026;28;20502;-73
2021/08/21 08:33:22;;;;;;;5.05;3.45;;;26.40;47.90;;;;;;5113935;28;20472;-72
2021/08/21 08:35:51;;;;;;;6.22;3.40;;;26.40;47.40;;;;;;5114051;28;20088;-73
2021/08/21 08:38:18;;;;;;;5.25;3.40;;;26.50;47.90;;;;;;5113934;28;20032;-72
2021/08/21 08:40:44;;;;;;;7.78;3.15;;;26.50;47.60;;;;;;5113977;28;20051;-73
2021/08/21 08:43:10;;;;;;;6.57;3.13;;;26.70;47.10;;;;;;5114089;28;20062;-72
2021/08/21 08:45:35;;;;;;;6.50;3.42;;;26.70;47.10;;;;;;5114503;28;20070;-71
2021/08/21 08:48:02;;;;;;;4.03;3.00;;;26.80;47.10;;;;;;5113705;28;20035;-72
2021/08/21 08:50:29;;;;;;;6.28;3.63;;;26.80;46.20;;;;;;5113677;28;20177;-72
2021/08/21 08:52:55;;;;;;;5.20;3.08;;;26.90;45.20;;;;;;5113915;28;20109;-72
2021/08/21 08:55:22;;;;;;;5.97;3.33;;;26.90;45.40;;;;;;5113850;28;20048;-73
2021/08/21 08:57:48;;;;;;;10.10;3.10;;;27.00;45.40;;;;;;5113423;28;20036;-73
2021/08/21 09:00:20;;;;;;;5.18;3.13;;;27.00;45.70;;;;;;5113446;28;20483;-72
2021/08/21 09:02:47;;;;;;;;;;;27.10;45.00;;;;;;5114339;28;20038;-72
2021/08/21 09:05:16;;;;;;;7.57;3.25;;;27.10;44.50;;;;;;5113760;28;19980;-72
2021/08/21 09:07:45;;;;;;;7.70;3.20;;;27.20;44.80;;;;;;5113497;28;20031;-73
2021/08/21 09:10:34;;;;;;;6.30;3.22;;;27.20;44.70;;;;;;5113486;28;20027;-68
2021/08/21 09:13:06;;;;;;;6.10;3.00;;;27.40;44.60;;;;;;5100980;28;20027;-72
2021/08/21 09:15:35;;;;;;;4.35;2.80;;;27.40;44.10;;;;;;5113652;28;20046;-73
2021/08/21 09:18:06;;;;;;;8.05;3.20;;;27.50;43.40;;;;;;5113485;28;20127;-72
2021/08/21 09:20:50;;;;;;;3.97;3.25;;;27.60;43.10;;;;;;5113664;28;20137;-72
2021/08/21 09:23:38;;;;;;;3.30;2.60;;;27.60;43.20;;;;;;5113604;28;20461;-72
2021/08/21 09:26:12;;;;;;;4.68;3.00;;;27.70;42.80;;;;;;5113566;28;20027;-73
2021/08/21 09:28:39;;;;;;;4.55;3.13;;;27.70;43.30;;;;;;5113350;28;20043;-72
2021/08/21 09:31:15;;;;;;;3.65;3.00;;;27.80;43.20;;;;;;5113422;28;20077;-72
2021/08/21 09:33:49;;;;;;;3.97;2.75;;;27.90;43.30;;;;;;5113470;28;20063;-72
2021/08/21 09:36:30;;;;;;;6.20;2.97;;;27.90;41.70;;;;;;5113368;28;20032;-72
2021/08/21 09:38:56;;;;;;;9.48;2.90;;;28.00;41.90;;;;;;5113528;28;20362;-72
2021/08/21 09:41:22;;;;;;;3.97;3.10;;;28.10;42.00;;;;;;5113348;28;20392;-72
2021/08/21 09:43:49;;;;;;;3.20;2.90;;;28.20;42.00;;;;;;5113043;28;20541;-72
2021/08/21 09:46:20;;;;;;;5.55;2.67;;;28.20;42.50;;;;;;5113627;28;20118;-72
2021/08/21 09:49:06;;;;;;;3.90;3.00;;;28.30;42.30;;;;;;5113327;28;20070;-72
2021/08/21 09:51:39;;;;;;;6.63;3.20;;;28.40;41.30;;;;;;5115703;28;20293;-72
2021/08/21 09:54:08;;;;;;;5.70;3.00;;;28.40;41.30;;;;;;5117288;28;20061;-73
2021/08/21 09:56:39;;;;;;;3.13;2.53;;;28.50;41.40;;;;;;5116879;28;20102;-72
2021/08/21 09:59:06;;;;;;;4.30;2.80;;;28.50;40.20;;;;;;5117120;28;20110;-73
2021/08/21 10:01:32;;;;;;;6.13;2.55;;;28.60;40.60;;;;;;5117028;28;20051;-73
2021/08/21 10:04:01;;;;;;;4.85;2.90;;;28.70;38.90;;;;;;5116909;28;20088;-73
2021/08/21 10:06:27;;;;;;;3.85;2.58;;;28.70;40.30;;;;;;5116885;28;20036;-72
2021/08/21 10:08:58;;;;;;;4.07;2.88;;;28.70;40.70;;;;;;5116805;28;20110;-73
2021/08/21 10:11:24;;;;;;;3.47;2.77;;;28.80;40.20;;;;;;5116761;28;20172;-73
2021/08/21 10:13:50;;;;;;;3.30;2.85;;;28.90;40.40;;;;;;5116706;28;20293;-72
2021/08/21 10:16:15;;;;;;;3.67;3.03;;;28.90;40.70;;;;;;5116718;28;20395;-73
2021/08/21 10:18:42;;;;;;;3.05;2.50;;;29.00;40.50;;;;;;5116672;28;20043;-73
2021/08/21 10:21:08;;;;;;;5.72;2.78;;;29.00;39.80;;;;;;5116536;28;20046;-72
2021/08/21 10:23:40;;;;;;;6.15;2.65;;;29.10;39.70;;;;;;5116654;28;20032;-72
2021/08/21 10:26:15;;;;;;;3.10;2.70;;;29.20;39.90;;;;;;5116685;28;20472;-72
2021/08/21 10:28:41;;;;;;;3.13;2.70;;;29.20;39.80;;;;;;5116380;28;20031;-72
2021/08/21 10:31:08;;;;;;;3.40;2.63;;;29.30;39.90;;;;;;5116501;28;20036;-72
2021/08/21 10:33:53;;;;;;;6.25;2.75;;;29.40;40.20;;;;;;5116436;28;20107;-73
2021/08/21 10:36:43;;;;;;;7.63;3.08;;;29.40;39.40;;;;;;5116370;28;20028;-73
2021/08/21 10:39:36;;;;;;;2.88;2.50;;;29.50;39.30;;;;;;5116170;28;20387;-72
2021/08/21 10:42:22;;;;;;;5.18;2.88;;;29.50;38.90;;;;;;5116172;28;20075;-72
2021/08/21 10:44:50;;;;;;;7.45;3.10;;;29.60;38.20;;;;;;5097785;28;20092;-71
2021/08/21 10:47:31;;;;;;;3.30;2.35;;;29.60;37.90;;;;;;5116163;28;20389;-71
2021/08/21 10:50:20;;;;;;;6.07;2.70;;;29.70;38.10;;;;;;5115873;28;20043;-72
2021/08/21 10:52:54;;;;;;;4.13;2.50;;;29.70;38.20;;;;;;5115561;28;20261;-72
2021/08/21 10:55:26;;;;;;;9.73;3.00;;;29.80;38.80;;;;;;5116209;28;20075;-72
2021/08/21 10:57:58;;;;;;;2.75;2.38;;;29.80;38.60;;;;;;5116076;28;20043;-72
2021/08/21 11:00:39;;;;;;;3.60;2.65;;;29.90;38.30;;;;;;5116040;28;20071;-73
2021/08/21 17:04:19;;;;;;;9.40;3.45;;;30.70;42.80;;;;;;5110387;28;20105;-72
2021/08/21 17:06:44;;;;;;;11.23;3.08;;;30.60;42.20;;;;;;5111900;28;20056;-72
2021/08/21 17:09:10;;;;;;;6.95;3.33;;;30.60;42.60;;;;;;5113684;28;20040;-72
2021/08/21 17:11:36;;;;;;;7.78;3.10;;;30.50;42.40;;;;;;5113707;28;20027;-72
2021/08/21 17:14:01;;;;;;;10.77;3.03;;;30.40;42.70;;;;;;5113698;28;20046;-74
2021/08/21 17:16:27;;;;;;;10.27;3.08;;;;;;;;;;5113508;28;20430;-72
2021/08/21 17:18:53;;;;;;;22.13;3.30;;;;;;;;;;5112965;28;20032;-79
2021/08/21 17:21:19;;;;;;;10.70;4.30;;;30.40;42.80;;;;;;5113575;28;20428;-72
2021/08/21 17:23:46;;;;;;;8.82;3.50;;;30.20;43.70;;;;;;5113581;28;20031;-71
2021/08/21 17:26:12;;;;;;;8.82;3.30;;;30.20;44.00;;;;;;5113078;28;20050;-71
2021/08/21 17:28:38;;;;;;;14.73;3.40;;;30.10;44.20;;;;;;5112903;28;20110;-71
2021/08/21 17:31:06;;;;;;;7.18;3.17;;;30.10;44.40;;;;;;5113218;28;20514;-71
2021/08/21 17:33:32;;;;;;;9.70;3.40;;;30.00;44.50;;;;;;5113570;28;20050;-67
2021/08/21 17:35:58;;;;;;;7.45;3.15;;;30.00;44.70;;;;;;5113334;28;20036;-71
2021/08/21 17:38:23;;;;;;;5.05;3.20;;;29.90;44.80;;;;;;5113558;28;20035;-72
2021/08/21 17:40:49;;;;;;;10.52;3.20;;;29.80;45.40;;;;;;5113326;28;20377;-72
2021/08/21 17:43:14;;;;;;;7.95;3.33;;;29.80;45.40;;;;;;5113193;28;20035;-72
2021/08/21 17:45:42;;;;;;;7.00;3.20;;;29.70;45.20;;;;;;5113427;28;20032;-72
2021/08/21 17:48:09;;;;;;;10.30;3.25;;;29.60;45.40;;;;;;5113438;28;20056;-71
2021/08/21 17:50:36;;;;;;;9.07;3.15;;;29.60;45.70;;;;;;5112615;28;20059;-70
2021/08/21 17:53:01;;;;;;;7.85;3.45;;;29.50;46.10;;;;;;5113267;28;20031;-72
2021/08/21 17:55:27;;;;;;;7.72;3.10;;;29.50;46.20;;;;;;5113326;28;20043;-71
2021/08/21 17:57:53;;;;;;;10.02;5.05;;;29.40;45.80;;;;;;5112955;28;20062;-72
2021/08/21 18:00:19;;;;;;;8.45;3.03;;;29.30;45.70;;;;;;5113020;28;20032;-72
2021/08/21 18:02:44;;;;;;;6.15;2.88;;;29.30;46.60;;;;;;5113050;28;20032;-71
2021/08/21 18:05:11;;;;;;;5.93;3.42;;;29.20;46.40;;;;;;5112730;28;20116;-72
2021/08/21 18:07:40;;;;;;;8.45;3.22;;;29.20;46.20;;;;;;5113002;28;20031;-71
2021/08/21 18:10:10;;;;;;;7.13;3.10;;;29.10;46.50;;;;;;5113021;28;20426;-72
2021/08/21 18:12:39;;;;;;;5.28;3.33;;;29.10;46.90;;;;;;5115540;28;20062;-73
2021/08/21 18:15:05;;;;;;;6.07;3.38;;;29.00;47.70;;;;;;5116718;28;20063;-73
2021/08/21 18:17:32;;;;;;;5.55;3.30;;;29.00;48.60;;;;;;5116574;28;20035;-73
2021/08/21 18:19:58;;;;;;;10.75;3.63;;;28.90;48.50;;;;;;5116346;28;20042;-73
2021/08/21 18:22:23;;;;;;;6.32;3.58;;;28.90;47.10;;;;;;5116600;28;20043;-74
2021/08/21 18:24:50;;;;;;;4.60;3.35;;;28.80;47.80;;;;;;5116263;28;20089;-74
2021/08/21 18:27:16;;;;;;;7.10;3.13;;;28.70;48.10;;;;;;5116078;28;20173;-72
2021/08/21 18:29:42;;;;;;;7.88;3.95;;;28.70;48.20;;;;;;5116439;28;20118;-71
2021/08/21 18:32:08;;;;;;;8.52;4.50;;;28.60;48.50;;;;;;5116355;28;20057;-71
2021/08/21 18:34:34;;;;;;;11.43;4.25;;;28.60;48.40;;;;;;5116419;28;20495;-72
2021/08/21 18:37:02;;;;;;;11.98;5.95;;;28.50;48.40;;;;;;5098190;28;20050;-72
2021/08/21 18:39:29;;;;;;;12.02;6.30;;;28.50;49.80;;;;;;5115492;28;20031;-71
2021/08/21 18:41:54;;;;;;;9.93;5.72;;;28.50;50.30;;;;;;5116027;28;20487;-65
2021/08/21 18:44:20;;;;;;;13.13;5.63;;;28.40;49.80;;;;;;5116211;28;20107;-64
2021/08/21 18:46:46;;;;;;;13.93;6.35;;;28.40;49.40;;;;;;5114957;28;20381;-65